createdAt,value
2019-02-20T00:02:16.739Z,32.10
2019-02-20T00:04:43.843Z,27.37
2019-02-20T00:07:10.920Z,25.17
2019-02-20T00:09:37.979Z,28.20
2019-02-20T00:12:05.156Z,30.10
2019-02-20T00:14:32.343Z,35.23
2019-02-20T00:16:59.376Z,32.97
2019-02-20T00:19:26.423Z,35.40
2019-02-20T00:21:53.516Z,21.93
2019-02-20T00:24:20.566Z,33.83
2019-02-20T00:26:47.705Z,32.57
2019-02-20T00:29:14.791Z,32.87
2019-02-20T00:31:41.979Z,32.53
2019-02-20T00:34:09.028Z,32.43
2019-02-20T00:36:36.112Z,31.80
2019-02-20T00:39:06.651Z,28.80
2019-02-20T00:41:33.690Z,27.07
2019-02-20T00:44:26.148Z,36.13
2019-02-20T00:47:57.015Z,28.03
2019-02-20T00:50:25.688Z,31.43
2019-02-20T00:52:57.860Z,27.47
2019-02-20T00:55:24.903Z,20.77
2019-02-20T00:58:40.908Z,28.10
2019-02-20T01:01:07.963Z,31.80
2019-02-20T01:03:35.004Z,37.33
2019-02-20T01:06:02.095Z,36.53
2019-02-20T01:08:29.273Z,27.87
2019-02-20T01:10:56.307Z,32.83
2019-02-20T01:13:23.404Z,29.43
2019-02-20T01:15:51.554Z,26.27
2019-02-20T01:18:18.728Z,34.97
2019-02-20T01:20:46.919Z,26.20
2019-02-20T01:23:14.014Z,33.03
2019-02-20T01:25:41.052Z,26.27
2019-02-20T01:28:08.146Z,33.93
2019-02-20T01:30:35.225Z,28.87
2019-02-20T01:33:02.301Z,27.80
2019-02-20T01:35:29.684Z,25.57
2019-02-20T01:37:56.747Z,30.10
2019-02-20T01:40:23.793Z,23.77
2019-02-20T01:43:09.350Z,25.23
2019-02-20T01:45:36.392Z,27.10
2019-02-20T01:48:03.427Z,32.77
2019-02-20T01:50:30.612Z,28.33
2019-02-20T01:53:59.036Z,31.57
2019-02-20T01:56:26.439Z,27.63
2019-02-20T01:58:53.551Z,29.27
2019-02-20T02:01:30.972Z,24.83
2019-02-20T02:03:58.009Z,27.07
2019-02-20T02:06:25.060Z,30.20
2019-02-20T02:08:52.142Z,30.00
2019-02-20T02:11:19.184Z,27.93
2019-02-20T02:13:46.249Z,25.90
2019-02-20T02:16:13.301Z,27.77
2019-02-20T02:18:40.344Z,32.03
2019-02-20T02:21:07.427Z,32.67
2019-02-20T02:23:40.956Z,29.80
2019-02-20T02:26:10.789Z,33.53
2019-02-20T02:28:36.981Z,28.13
2019-02-20T02:31:04.096Z,32.17
2019-02-20T02:33:32.345Z,28.10
2019-02-20T02:35:59.511Z,36.30
2019-02-20T02:38:26.620Z,32.13
2019-02-20T02:40:53.762Z,36.27
2019-02-20T02:43:20.847Z,34.70
2019-02-20T02:45:47.894Z,27.67
2019-02-20T02:48:20.153Z,29.57
2019-02-20T02:50:47.237Z,44.80
2019-02-20T02:53:14.279Z,30.00
2019-02-20T02:55:41.305Z,36.80
2019-02-20T02:58:08.372Z,34.37
2019-02-20T03:00:35.423Z,32.33
2019-02-20T03:03:02.469Z,40.50
2019-02-20T03:05:29.573Z,29.47
2019-02-20T03:07:56.610Z,36.70
2019-02-20T03:10:23.653Z,28.97
2019-02-20T03:13:09.578Z,31.40
2019-02-20T03:15:36.635Z,30.03
2019-02-20T03:18:03.686Z,32.60
2019-02-20T03:20:30.775Z,39.80
2019-02-20T03:22:57.824Z,24.17
2019-02-20T03:25:24.967Z,29.37
2019-02-20T03:27:52.046Z,28.97
2019-02-20T03:30:19.086Z,34.60
2019-02-20T03:32:46.216Z,26.63
2019-02-20T03:35:13.566Z,28.27
2019-02-20T03:37:40.642Z,37.37
2019-02-20T03:40:08.030Z,30.43
2019-02-20T03:42:35.104Z,33.10
2019-02-20T03:45:02.164Z,30.37
2019-02-20T03:48:23.858Z,20.77
2019-02-20T03:50:50.906Z,37.67
2019-02-20T03:53:17.930Z,32.10
2019-02-20T03:55:46.801Z,27.53
2019-02-20T03:58:13.851Z,33.10
2019-02-20T04:00:40.930Z,36.50
2019-02-20T04:03:08.098Z,32.57
2019-02-20T04:05:35.135Z,33.83
2019-02-20T04:08:02.179Z,32.40
2019-02-20T04:10:29.248Z,33.30
2019-02-20T04:12:56.372Z,34.63
2019-02-20T04:15:23.354Z,35.23
2019-02-20T04:17:50.436Z,20.97
2019-02-20T04:20:17.483Z,35.00
2019-02-20T04:22:44.562Z,29.90
2019-02-20T04:25:11.657Z,32.90
2019-02-20T04:27:38.699Z,39.30
2019-02-20T04:30:06.410Z,35.17
2019-02-20T04:32:33.494Z,33.47
2019-02-20T04:35:00.556Z,38.07
2019-02-20T04:37:27.613Z,29.77
2019-02-20T04:39:54.713Z,35.37
2019-02-20T04:42:21.823Z,27.53
2019-02-20T04:44:48.929Z,35.03
2019-02-20T04:47:15.952Z,28.00
2019-02-20T04:49:42.989Z,31.10
2019-02-20T04:52:10.179Z,28.07
2019-02-20T04:54:37.218Z,29.83
2019-02-20T04:57:04.258Z,34.37
2019-02-20T04:59:31.325Z,29.67
2019-02-20T05:01:58.450Z,32.20
2019-02-20T05:04:25.522Z,36.83
2019-02-20T05:06:52.611Z,30.70
2019-02-20T05:09:19.675Z,33.03
2019-02-20T05:11:46.712Z,26.13
2019-02-20T05:14:13.794Z,29.33
2019-02-20T05:16:40.844Z,33.43
2019-02-20T05:19:07.887Z,40.77
2019-02-20T05:21:34.986Z,28.37
2019-02-20T05:24:02.019Z,33.27
2019-02-20T05:26:29.144Z,35.37
2019-02-20T05:28:56.239Z,36.23
2019-02-20T05:31:23.378Z,34.60
2019-02-20T05:33:50.437Z,27.17
2019-02-20T05:36:17.589Z,31.63
2019-02-20T05:38:44.687Z,28.03
2019-02-20T05:41:11.912Z,32.63
2019-02-20T05:43:40.114Z,39.30
2019-02-20T05:46:07.646Z,30.43
2019-02-20T05:48:34.808Z,33.60
2019-02-20T05:51:01.901Z,28.07
2019-02-20T05:53:28.938Z,38.80
2019-02-20T05:55:56.027Z,25.53
2019-02-20T05:58:23.056Z,31.10
2019-02-20T06:00:50.086Z,34.97
2019-02-20T06:03:17.187Z,29.30
2019-02-20T06:05:44.466Z,33.73
2019-02-20T06:08:11.547Z,35.33
2019-02-20T06:10:38.637Z,37.80
2019-02-20T06:13:05.698Z,37.73
2019-02-20T06:15:34.077Z,35.80
2019-02-20T06:18:01.147Z,27.17
2019-02-20T06:20:28.195Z,35.47
2019-02-20T06:23:22.845Z,36.73
2019-02-20T06:25:50.103Z,33.23
2019-02-20T06:28:17.170Z,37.73
2019-02-20T06:30:44.248Z,30.77
2019-02-20T06:33:11.314Z,36.20
2019-02-20T06:35:38.415Z,38.97
2019-02-20T06:38:05.483Z,37.13
2019-02-20T06:40:32.532Z,39.27
2019-02-20T06:42:59.608Z,38.30
2019-02-20T06:45:26.751Z,37.27
2019-02-20T06:47:53.834Z,35.80
2019-02-20T06:50:21.188Z,36.90
2019-02-20T06:52:48.336Z,43.10
2019-02-20T06:55:15.422Z,40.07
2019-02-20T06:57:42.498Z,31.97
2019-02-20T07:00:10.247Z,37.70
2019-02-20T07:02:37.309Z,34.00
2019-02-20T07:05:40.544Z,40.47
2019-02-20T07:08:58.028Z,35.67
2019-02-20T07:11:52.394Z,39.27
2019-02-20T07:15:13.722Z,47.23
2019-02-20T07:18:28.184Z,42.97
2019-02-20T07:21:21.868Z,41.23
2019-02-20T07:24:39.752Z,43.30
2019-02-20T07:27:54.679Z,40.10
2019-02-20T07:30:21.790Z,42.93
2019-02-20T07:32:48.902Z,37.93
2019-02-20T07:35:15.934Z,41.50
2019-02-20T07:37:43.031Z,40.47
2019-02-20T07:40:11.508Z,39.37
2019-02-20T07:42:38.551Z,43.87
2019-02-20T07:45:07.305Z,47.80
2019-02-20T07:47:34.360Z,38.60
2019-02-20T07:50:01.429Z,43.80
2019-02-20T07:52:28.567Z,36.07
2019-02-20T07:54:55.635Z,43.43
2019-02-20T07:57:22.737Z,42.70
2019-02-20T07:59:49.852Z,38.77
2019-02-20T08:02:16.900Z,39.80
2019-02-20T08:04:43.966Z,39.23
2019-02-20T08:07:11.067Z,41.63
2019-02-20T08:09:38.269Z,42.07
2019-02-20T08:12:06.518Z,32.23
2019-02-20T08:14:33.595Z,47.37
2019-02-20T08:17:00.713Z,43.73
2019-02-20T08:19:27.757Z,42.03
2019-02-20T08:21:54.873Z,42.80
2019-02-20T08:24:22.091Z,43.30
2019-02-20T08:26:49.275Z,39.77
2019-02-20T08:29:16.479Z,45.80
2019-02-20T08:31:43.720Z,45.23
2019-02-20T08:34:10.836Z,37.90
2019-02-20T08:36:37.951Z,43.80
2019-02-20T08:39:05.305Z,36.90
2019-02-20T08:41:32.361Z,45.43
2019-02-20T08:43:59.589Z,43.20
2019-02-20T08:46:45.200Z,45.27
2019-02-20T08:49:12.369Z,46.30
2019-02-20T08:51:39.429Z,56.07
2019-02-20T08:54:06.578Z,41.87
2019-02-20T08:56:33.689Z,41.23
2019-02-20T08:59:00.759Z,42.90
2019-02-20T09:01:27.902Z,44.60
2019-02-20T09:03:54.967Z,48.57
2019-02-20T09:06:22.053Z,53.40
2019-02-20T09:08:49.353Z,53.60
2019-02-20T09:11:16.425Z,48.97
2019-02-20T09:13:43.498Z,49.17
2019-02-20T09:16:12.427Z,44.50
2019-02-20T09:18:40.619Z,47.23
2019-02-20T09:21:07.691Z,47.93
2019-02-20T09:23:34.842Z,50.10
2019-02-20T09:26:01.894Z,42.83
2019-02-20T09:28:29.018Z,41.17
2019-02-20T09:30:56.157Z,46.03
2019-02-20T09:33:23.294Z,41.87
2019-02-20T09:35:50.470Z,34.37
2019-02-20T09:38:17.606Z,40.37
2019-02-20T09:40:44.652Z,39.97
2019-02-20T09:43:11.708Z,41.80
2019-02-20T09:45:42.014Z,44.73
2019-02-20T09:48:07.904Z,44.30
2019-02-20T09:50:35.028Z,47.93
2019-02-20T09:53:02.249Z,47.07
2019-02-20T09:55:29.320Z,36.47
2019-02-20T09:57:56.487Z,42.53
2019-02-20T10:00:23.610Z,31.40
2019-02-20T10:02:50.678Z,39.20
2019-02-20T10:05:17.864Z,36.53
2019-02-20T10:07:45.006Z,30.73
2019-02-20T10:10:12.236Z,42.47
2019-02-20T10:12:39.378Z,47.10
2019-02-20T10:15:07.482Z,46.63
2019-02-20T10:17:34.565Z,38.30
2019-02-20T10:20:01.657Z,35.47
2019-02-20T10:22:28.940Z,39.97
2019-02-20T10:24:55.994Z,39.97
2019-02-20T10:27:23.078Z,37.87
2019-02-20T10:29:50.515Z,37.03
2019-02-20T10:32:17.581Z,39.50
2019-02-20T10:34:44.663Z,34.53
2019-02-20T10:37:11.940Z,36.37
2019-02-20T10:39:39.015Z,38.40
2019-02-20T10:42:06.086Z,30.97
2019-02-20T10:44:33.199Z,36.77
2019-02-20T10:47:00.288Z,37.13
2019-02-20T10:49:27.461Z,35.27
2019-02-20T10:52:13.128Z,26.93
2019-02-20T10:54:40.188Z,31.43
2019-02-20T10:57:07.252Z,33.40
2019-02-20T10:59:35.579Z,25.73
2019-02-20T11:02:02.655Z,31.83
2019-02-20T11:04:32.283Z,32.03
2019-02-20T11:06:59.377Z,33.50
2019-02-20T11:09:26.444Z,27.63
2019-02-20T11:11:54.529Z,29.30
2019-02-20T11:14:21.749Z,29.97
2019-02-20T11:16:48.826Z,30.90
2019-02-20T11:19:16.702Z,29.23
2019-02-20T11:21:43.781Z,24.30
2019-02-20T11:24:10.899Z,29.70
2019-02-20T11:26:46.239Z,24.50
2019-02-20T11:29:19.478Z,26.57
2019-02-20T11:31:46.571Z,26.93
2019-02-20T11:34:13.688Z,25.43
2019-02-20T11:36:40.836Z,22.57
2019-02-20T11:39:07.925Z,24.93
2019-02-20T11:41:35.004Z,26.60
2019-02-20T11:44:02.113Z,20.63
2019-02-20T11:46:29.200Z,21.43
2019-02-20T11:48:56.436Z,17.73
2019-02-20T11:51:23.571Z,23.33
2019-02-20T11:53:50.684Z,24.87
2019-02-20T11:56:26.842Z,19.20
2019-02-20T11:58:54.014Z,23.13
2019-02-20T12:01:21.079Z,22.30
2019-02-20T12:04:11.339Z,21.70
2019-02-20T12:06:38.429Z,20.23
2019-02-20T12:09:05.908Z,26.37
2019-02-20T12:11:34.131Z,19.00
2019-02-20T12:14:01.188Z,20.17
2019-02-20T12:16:28.380Z,19.67
2019-02-20T12:18:55.488Z,18.87
2019-02-20T12:21:22.657Z,18.67
2019-02-20T12:23:49.721Z,14.00
2019-02-20T12:26:16.962Z,16.20
2019-02-20T12:28:44.048Z,18.63
2019-02-20T12:31:11.102Z,16.23
2019-02-20T12:33:38.227Z,23.40
2019-02-20T12:36:05.357Z,17.93
2019-02-20T12:38:34.002Z,20.13
2019-02-20T12:41:01.219Z,17.13
2019-02-20T12:43:28.361Z,17.03
2019-02-20T12:45:55.426Z,16.43
2019-02-20T12:48:22.564Z,13.20
2019-02-20T12:50:49.743Z,27.27
2019-02-20T12:53:55.137Z,15.17
2019-02-20T12:56:22.352Z,13.80
2019-02-20T12:58:49.650Z,16.00
2019-02-20T13:01:16.757Z,15.17
2019-02-20T13:03:43.986Z,12.50
2019-02-20T13:06:11.236Z,17.87
2019-02-20T13:08:38.395Z,13.60
2019-02-20T13:11:05.595Z,15.50
2019-02-20T13:13:32.765Z,14.83
2019-02-20T13:15:59.957Z,15.40
2019-02-20T13:18:27.042Z,15.73
2019-02-20T13:20:54.170Z,13.47
2019-02-20T13:23:21.256Z,12.70
2019-02-20T13:25:48.321Z,14.73
2019-02-20T13:28:15.547Z,15.37
2019-02-20T13:30:42.613Z,17.57
2019-02-20T13:33:09.896Z,18.87
2019-02-20T13:35:38.142Z,17.47
2019-02-20T13:38:05.427Z,19.07
2019-02-20T13:40:32.551Z,20.87
2019-02-20T13:42:59.728Z,17.23
2019-02-20T13:45:26.821Z,15.30
2019-02-20T13:47:54.005Z,19.80
2019-02-20T13:50:21.330Z,12.53
2019-02-20T13:52:52.414Z,17.03
2019-02-20T13:55:17.388Z,19.63
2019-02-20T13:57:44.664Z,15.03
2019-02-20T14:00:13.276Z,13.10
2019-02-20T14:02:40.635Z,16.30
2019-02-20T14:05:07.866Z,13.03
2019-02-20T14:07:35.178Z,16.87
2019-02-20T14:10:02.561Z,17.43
2019-02-20T14:12:29.719Z,13.50
2019-02-20T14:14:56.821Z,14.83
2019-02-20T14:17:26.567Z,23.00
2019-02-20T14:19:52.891Z,15.77
2019-02-20T14:22:20.802Z,12.17
2019-02-20T14:24:49.237Z,17.13
2019-02-20T14:27:17.229Z,16.13
2019-02-20T14:29:44.873Z,16.23
2019-02-20T14:32:11.948Z,11.77
2019-02-20T14:34:39.079Z,14.30
2019-02-20T14:37:06.208Z,10.73
2019-02-20T14:39:40.071Z,16.50
2019-02-20T14:42:07.189Z,13.30
2019-02-20T14:44:34.550Z,15.40
2019-02-20T14:47:02.730Z,18.33
2019-02-20T14:49:29.921Z,14.67
2019-02-20T14:51:56.957Z,15.43
2019-02-20T14:54:24.234Z,13.57
2019-02-20T14:56:51.321Z,16.13
2019-02-20T14:59:18.483Z,20.23
2019-02-20T15:01:45.557Z,16.53
2019-02-20T15:04:14.008Z,15.90
2019-02-20T15:06:41.125Z,18.23
2019-02-20T15:09:08.287Z,25.37
2019-02-20T15:11:35.465Z,14.33
2019-02-20T15:14:02.539Z,17.60
2019-02-20T15:16:29.688Z,15.53
2019-02-20T15:18:56.798Z,17.53
2019-02-20T15:21:24.272Z,12.77
2019-02-20T15:23:51.467Z,15.63
2019-02-20T15:26:18.574Z,14.30
2019-02-20T15:28:45.629Z,15.97
2019-02-20T15:31:12.697Z,15.27
2019-02-20T15:33:39.988Z,14.20
2019-02-20T15:36:07.348Z,14.83
2019-02-20T15:38:34.468Z,12.80
2019-02-20T15:41:02.053Z,21.33
2019-02-20T15:43:29.117Z,15.30
2019-02-20T15:45:56.193Z,20.63
2019-02-20T15:48:23.758Z,13.80
2019-02-20T15:50:53.048Z,16.33
2019-02-20T15:53:20.088Z,14.33
2019-02-20T15:55:47.276Z,18.07
2019-02-20T15:58:15.051Z,15.80
2019-02-20T16:00:42.137Z,15.13
2019-02-20T16:03:09.231Z,16.80
2019-02-20T16:05:36.309Z,18.20
2019-02-20T16:08:03.454Z,21.73
2019-02-20T16:10:31.162Z,16.03
2019-02-20T16:12:58.317Z,18.60
2019-02-20T16:15:25.384Z,18.47
2019-02-20T16:17:52.865Z,18.73
2019-02-20T16:20:19.943Z,18.13
2019-02-20T16:22:47.014Z,20.37
2019-02-20T16:25:14.213Z,18.97
2019-02-20T16:27:47.361Z,18.40
2019-02-20T16:30:11.263Z,15.60
2019-02-20T16:32:38.380Z,20.80
2019-02-20T16:35:07.712Z,18.40
2019-02-20T16:37:34.972Z,17.67
2019-02-20T16:40:02.110Z,18.80
2019-02-20T16:42:29.335Z,50.23
2019-02-20T16:44:56.389Z,16.83
2019-02-20T16:47:23.615Z,19.60
2019-02-20T16:49:50.723Z,21.70
2019-02-20T16:52:17.919Z,19.47
2019-02-20T16:54:45.602Z,15.40
2019-02-20T16:57:12.827Z,19.63
2019-02-20T16:59:39.973Z,17.90
2019-02-20T17:02:07.781Z,16.03
2019-02-20T17:04:34.914Z,21.50
2019-02-20T17:07:02.103Z,20.23
2019-02-20T17:09:29.171Z,20.53
2019-02-20T17:11:56.239Z,17.00
2019-02-20T17:14:23.454Z,18.53
2019-02-20T17:16:50.499Z,29.77
2019-02-20T17:19:17.565Z,21.93
2019-02-20T17:21:46.210Z,23.17
2019-02-20T17:24:13.261Z,27.20
2019-02-20T17:26:40.440Z,20.33
2019-02-20T17:29:07.579Z,20.40
2019-02-20T17:31:35.563Z,19.03
2019-02-20T17:34:02.730Z,20.33
2019-02-20T17:36:29.812Z,21.27
2019-02-20T17:38:56.933Z,27.13
2019-02-20T17:41:24.037Z,19.80
2019-02-20T17:43:51.265Z,20.27
2019-02-20T17:46:18.767Z,25.60
2019-02-20T17:48:46.036Z,27.07
2019-02-20T17:51:13.345Z,23.10
2019-02-20T17:54:06.648Z,26.87
2019-02-20T17:56:33.744Z,17.37
2019-02-20T17:59:00.836Z,43.40
2019-02-20T18:01:28.105Z,18.53
2019-02-20T18:03:55.383Z,24.60
2019-02-20T18:06:22.610Z,22.83
2019-02-20T18:08:49.792Z,22.27
2019-02-20T18:11:17.167Z,21.03
2019-02-20T18:13:44.362Z,25.90
2019-02-20T18:16:11.556Z,28.37
2019-02-20T18:18:38.671Z,27.60
2019-02-20T18:21:05.788Z,24.77
2019-02-20T18:23:32.940Z,29.60
2019-02-20T18:26:01.045Z,23.00
2019-02-20T18:28:28.159Z,25.90
2019-02-20T18:30:55.297Z,24.90
2019-02-20T18:33:22.482Z,25.37
2019-02-20T18:35:49.713Z,22.83
2019-02-20T18:38:16.845Z,26.03
2019-02-20T18:40:44.101Z,19.23
2019-02-20T18:43:12.303Z,21.17
2019-02-20T18:45:39.530Z,21.03
2019-02-20T18:48:06.774Z,22.10
2019-02-20T18:50:33.902Z,24.80
2019-02-20T18:53:01.048Z,27.63
2019-02-20T18:55:29.501Z,19.93
2019-02-20T18:57:56.693Z,19.63
2019-02-20T19:00:23.826Z,24.10
2019-02-20T19:03:27.408Z,34.93
2019-02-20T19:05:54.618Z,22.27
2019-02-20T19:08:39.933Z,25.40
2019-02-20T19:11:44.301Z,28.83
2019-02-20T19:14:26.719Z,23.97
2019-02-20T19:17:21.118Z,23.07
2019-02-20T19:20:02.180Z,34.83
2019-02-20T19:22:57.729Z,33.07
2019-02-20T19:26:02.884Z,22.33
2019-02-20T19:29:10.468Z,25.40
2019-02-20T19:32:04.969Z,19.87
2019-02-20T19:35:21.404Z,18.17
2019-02-20T19:37:55.051Z,19.73
2019-02-20T19:41:02.708Z,20.10
2019-02-20T19:43:57.753Z,25.03
2019-02-20T19:47:04.586Z,29.93
2019-02-20T19:50:25.547Z,22.53
2019-02-20T19:53:04.930Z,18.70
2019-02-20T19:55:57.832Z,22.87
2019-02-20T19:59:01.132Z,16.83
2019-02-20T20:02:10.188Z,28.77
2019-02-20T20:05:38.797Z,24.27
2019-02-20T20:08:52.890Z,24.23
2019-02-20T20:12:19.893Z,20.57
2019-02-20T20:15:02.826Z,21.47
2019-02-20T20:18:19.162Z,20.10
2019-02-20T20:21:15.844Z,18.57
2019-02-20T20:24:10.321Z,21.63
2019-02-20T20:27:23.042Z,19.87
2019-02-20T20:30:44.900Z,18.87
2019-02-20T20:33:49.843Z,19.40
2019-02-20T20:36:46.842Z,19.23
2019-02-20T20:40:06.810Z,22.10
2019-02-20T20:43:05.430Z,25.97
2019-02-20T20:45:48.661Z,21.30
2019-02-20T20:48:57.474Z,22.97
2019-02-20T20:51:57.009Z,23.33
2019-02-20T20:55:10.610Z,20.77
2019-02-20T20:58:16.212Z,18.80
2019-02-20T21:01:26.744Z,18.93
2019-02-20T21:04:20.387Z,25.83
2019-02-20T21:07:26.728Z,22.80
2019-02-20T21:10:49.843Z,21.23
2019-02-20T21:14:00.217Z,19.67
2019-02-20T21:16:50.951Z,24.07
2019-02-20T21:19:57.829Z,25.30
2019-02-20T21:23:05.540Z,26.63
2019-02-20T21:25:51.023Z,24.70
2019-02-20T21:28:50.865Z,25.10
2019-02-20T21:32:15.356Z,25.33
2019-02-20T21:35:18.897Z,25.00
2019-02-20T21:38:16.522Z,23.60
2019-02-20T21:41:25.423Z,27.50
2019-02-20T21:44:14.977Z,26.23
2019-02-20T21:47:09.513Z,25.60
2019-02-20T21:50:03.868Z,24.13
2019-02-20T21:53:13.993Z,26.67
2019-02-20T21:56:12.044Z,27.13
2019-02-20T21:59:03.305Z,27.00
2019-02-20T22:02:01.659Z,29.13
2019-02-20T22:04:49.942Z,28.30
2019-02-20T22:07:58.810Z,26.87
2019-02-20T22:11:24.368Z,24.40
2019-02-20T22:14:17.175Z,27.23
2019-02-20T22:17:06.315Z,26.70
2019-02-20T22:20:07.200Z,27.27
2019-02-20T22:23:18.645Z,32.53
2019-02-20T22:26:17.177Z,30.90
2019-02-20T22:29:20.510Z,27.73
2019-02-20T22:32:35.904Z,26.60
2019-02-20T22:35:40.578Z,29.70
2019-02-20T22:39:05.173Z,26.80
2019-02-20T22:42:12.859Z,27.93
2019-02-20T22:45:19.044Z,33.73
2019-02-20T22:47:59.913Z,30.97
2019-02-20T22:51:00.187Z,24.40
2019-02-20T22:53:50.080Z,31.03
2019-02-20T22:57:13.307Z,31.17
2019-02-20T23:00:17.964Z,31.97
2019-02-20T23:03:10.661Z,30.47
2019-02-20T23:06:14.245Z,32.83
2019-02-20T23:09:37.423Z,36.37
2019-02-20T23:12:22.955Z,35.17
2019-02-20T23:15:09.571Z,36.30
2019-02-20T23:17:36.648Z,34.43
2019-02-20T23:20:04.474Z,34.20
2019-02-20T23:22:31.623Z,30.40
2019-02-20T23:24:58.659Z,36.50
2019-02-20T23:27:25.740Z,30.50
2019-02-20T23:29:53.070Z,33.80
2019-02-20T23:32:20.153Z,29.17
2019-02-20T23:34:47.212Z,39.43
2019-02-20T23:37:15.759Z,36.10
2019-02-20T23:39:44.769Z,33.53
2019-02-20T23:42:11.850Z,35.97
2019-02-20T23:44:38.954Z,33.97
2019-02-20T23:47:06.027Z,30.90
2019-02-20T23:49:33.106Z,37.53
2019-02-20T23:52:00.221Z,35.90
2019-02-20T23:54:27.599Z,36.47
2019-02-20T23:56:54.814Z,35.53
2019-02-20T23:59:21.913Z,33.20
